Airfield :
LOGIN :

Register | Disclaimer

   EN    FR    IT 

 










Legend :    VFR   Marginal VFR   IFR   Intensive IFR   Very Intensive IFR
Visi :
Ceiling :
>= 8 km
>= 3000ft
5 to 8 km
1000 to 3000 ft
1500m to 5 km
500 to 1000 ft
800 to 1500m
200 to 500 ft
< 800m
< 200 ft
Symbols :   Thunderstorms  Fog  Heavy snow  Heavy precipitations  Wind > 20 kt
SIGMETs :     Misc.  Thunderstorms  Icing  Turbulence  Mountain Waves  Volcanic Ashes






- Airport Elevation : 405 ft
- IATA code : ODH


EGVO - RAF Odiham

CURRENT METAR :
  • 231950Z 03002KT 5000 BR OVC009 11/11 Q1007 RMK GRN

EXPIRED METARs :
  • 231850Z 18001KT 6000 BR OVC014 11/10 Q1008 NOSIG RMK GRN GRN
  • 231750Z 36004KT 8000 HZ FEW012 BKN070 BKN180 11/11 Q1008 BECMG SCT012 RMK BLU BECMG GRN
  • 231720Z 36004KT 8000 HZ FEW012 SCT050 BKN170 12/11 Q1008 BECMG SCT012 RMK BLU BECMG GRN

TAF TAF EGVO
Valid from the 23 at 18:00 until the 24 at 06:00 UTC


231628Z 2318/2406 05005KT 9999 FEW012
BECMG 2318/2319 BKN010
BECMG 2319/2322 6000 -RA BKN006
PROB40
TEMPO 2321/2406 2000 -RADZ SCT004
PROB30
TEMPO 2322/2406 0800 FG SCT001



MET'MAP, your aeronautical weather chart ! - Copyright ORBIFLY December 2007 - Disclaimer

ORBIFLY MET'MAP TEAM :

Programming & Development : Alexandra Zaïnal
Concept & Development : Baudouin d'Aumeries
Co-Development & Prog : Marc-Olivier Méhu
Technical & hardware support : Manuel Goepfert

Contact : metmap@orbifly.com




SOURCES & CREDITS :

   NOAA